Terminal Aerodrome Forecast
Issued by NWS

Home | Current Version | Previous Version | Graphics & Text | Print | Product List | Glossary On
Versions: 1 2 3 4 5 6 7 8 9 10 11 12 13 14 15 16 17 18 19 20 21 22
860
FTUS43 KBIS 201729
TAFDIK
TAF
KDIK 201729Z 2018/2118 30008KT 6SM BR SCT140
     FM202100 31007KT 2SM BR BKN030
     FM202300 32007KT 1 1/2SM BR BKN008
     FM210300 30006KT 1/2SM FG BKN008
     FM211000 30006KT 3/4SM BR BKN008
     FM211500 30006KT 2SM BR OVC008=

USA.gov is the U.S. government's official web portal to all federal, state and local government web resources and services.